Chicago Bmc, Illinois
Current Conditions -  °F | °C
As of 11:51 AM on Monday 24 Nov 2014 (Local Time) from KORD Reporting Station
Moderate Snow Moderate Snow  
Wind Chill: 17°   Ceiling: 800
Heat Index: 31°   Visibility: 0.5mi
Dew Point: 29°   Wind: 25mph
Humidity: 92%   Direction: 240°WSW
Pressure: 29.3"   Gusts: 33mph
Location:  42.0275°N, 87.808°W
Report Text: KORD 241751Z 24022G29KT 1/2SM R10L/3000V3500FT SN FZFG VV008 M01/M02 A2930 RMK AO2 PK WND 26034/1713 SLP926 4/001 P0003 60030 T10061017 10083 21006 51018
Loading
Personal Weather Stations






























Interactive Weather Map New forecast layout! Learn more

10-Day Weather Forecast

Advertisements
Track Severe Weather on mobile